sensor_id;sensor_type;location;lat;lon;timestamp;P1;durP1;ratioP1;P2;durP2;ratioP2
42598;SDS011;28225;42.714;23.860;2023-12-22T00:00:10;43.13;;;30.77;;
42598;SDS011;28225;42.714;23.860;2023-12-22T00:00:26;45.63;;;32.17;;
42598;SDS011;28225;42.714;23.860;2023-12-22T00:00:41;44.80;;;31.73;;
42598;SDS011;28225;42.714;23.860;2023-12-22T00:00:57;42.42;;;29.70;;
42598;SDS011;28225;42.714;23.860;2023-12-22T00:01:12;46.30;;;30.13;;
42598;SDS011;28225;42.714;23.860;2023-12-22T00:01:30;41.80;;;30.30;;
42598;SDS011;28225;42.714;23.860;2023-12-22T00:01:46;37.05;;;28.98;;
42598;SDS011;28225;42.714;23.860;2023-12-22T00:02:01;36.03;;;27.03;;
42598;SDS011;28225;42.714;23.860;2023-12-22T00:02:17;36.47;;;25.73;;
42598;SDS011;28225;42.714;23.860;2023-12-22T00:02:32;33.70;;;24.40;;
42598;SDS011;28225;42.714;23.860;2023-12-22T00:02:50;30.92;;;22.80;;
42598;SDS011;28225;42.714;23.860;2023-12-22T00:03:05;30.47;;;22.87;;
42598;SDS011;28225;42.714;23.860;2023-12-22T00:03:21;30.85;;;22.05;;
42598;SDS011;28225;42.714;23.860;2023-12-22T00:03:36;30.43;;;21.17;;
42598;SDS011;28225;42.714;23.860;2023-12-22T00:03:51;27.92;;;21.35;;
42598;SDS011;28225;42.714;23.860;2023-12-22T00:04:07;25.03;;;20.67;;
42598;SDS011;28225;42.714;23.860;2023-12-22T00:04:22;26.88;;;21.27;;
42598;SDS011;28225;42.714;23.860;2023-12-22T00:04:38;32.57;;;24.03;;
42598;SDS011;28225;42.714;23.860;2023-12-22T00:04:53;39.33;;;27.60;;
42598;SDS011;28225;42.714;23.860;2023-12-22T00:05:09;40.78;;;29.45;;
42598;SDS011;28225;42.714;23.860;2023-12-22T00:05:24;42.33;;;31.48;;
42598;SDS011;28225;42.714;23.860;2023-12-22T00:05:41;48.13;;;35.20;;
42598;SDS011;28225;42.714;23.860;2023-12-22T00:05:56;49.80;;;36.30;;
42598;SDS011;28225;42.714;23.860;2023-12-22T00:06:12;48.33;;;36.17;;
42598;SDS011;28225;42.714;23.860;2023-12-22T00:06:27;41.58;;;33.88;;
42598;SDS011;28225;42.714;23.860;2023-12-22T00:06:43;36.03;;;31.00;;
42598;SDS011;28225;42.714;23.860;2023-12-22T00:06:58;37.42;;;29.80;;
42598;SDS011;28225;42.714;23.860;2023-12-22T00:07:14;36.40;;;29.47;;
42598;SDS011;28225;42.714;23.860;2023-12-22T00:07:29;35.90;;;29.67;;
42598;SDS011;28225;42.714;23.860;2023-12-22T00:07:45;38.63;;;31.60;;
42598;SDS011;28225;42.714;23.860;2023-12-22T00:08:00;37.40;;;32.33;;
42598;SDS011;28225;42.714;23.860;2023-12-22T00:08:16;38.03;;;32.17;;
42598;SDS011;28225;42.714;23.860;2023-12-22T00:08:31;38.67;;;32.87;;
42598;SDS011;28225;42.714;23.860;2023-12-22T00:08:46;38.67;;;33.95;;
42598;SDS011;28225;42.714;23.860;2023-12-22T00:09:02;42.53;;;35.00;;
42598;SDS011;28225;42.714;23.860;2023-12-22T00:09:17;44.40;;;37.10;;
42598;SDS011;28225;42.714;23.860;2023-12-22T00:09:33;42.07;;;37.33;;
42598;SDS011;28225;42.714;23.860;2023-12-22T00:09:48;44.17;;;38.05;;
42598;SDS011;28225;42.714;23.860;2023-12-22T00:10:04;43.63;;;38.17;;
42598;SDS011;28225;42.714;23.860;2023-12-22T00:10:20;41.28;;;36.83;;
42598;SDS011;28225;42.714;23.860;2023-12-22T00:10:35;40.43;;;35.43;;
42598;SDS011;28225;42.714;23.860;2023-12-22T00:10:50;36.58;;;32.38;;
42598;SDS011;28225;42.714;23.860;2023-12-22T00:11:06;34.70;;;30.97;;
42598;SDS011;28225;42.714;23.860;2023-12-22T00:11:22;34.35;;;30.70;;
42598;SDS011;28225;42.714;23.860;2023-12-22T00:11:38;34.37;;;30.80;;
42598;SDS011;28225;42.714;23.860;2023-12-22T00:11:53;33.58;;;29.55;;
42598;SDS011;28225;42.714;23.860;2023-12-22T00:12:08;33.80;;;30.23;;
42598;SDS011;28225;42.714;23.860;2023-12-22T00:12:24;34.73;;;31.13;;
42598;SDS011;28225;42.714;23.860;2023-12-22T00:12:39;36.45;;;32.67;;
42598;SDS011;28225;42.714;23.860;2023-12-22T00:12:55;38.40;;;34.63;;
42598;SDS011;28225;42.714;23.860;2023-12-22T00:13:11;39.22;;;35.22;;
42598;SDS011;28225;42.714;23.860;2023-12-22T00:13:26;40.97;;;36.63;;
42598;SDS011;28225;42.714;23.860;2023-12-22T00:13:42;40.40;;;36.17;;
42598;SDS011;28225;42.714;23.860;2023-12-22T00:13:58;35.13;;;31.60;;
42598;SDS011;28225;42.714;23.860;2023-12-22T00:14:13;33.17;;;29.77;;
42598;SDS011;28225;42.714;23.860;2023-12-22T00:14:29;33.67;;;30.40;;
42598;SDS011;28225;42.714;23.860;2023-12-22T00:14:44;33.20;;;30.00;;
42598;SDS011;28225;42.714;23.860;2023-12-22T00:15:00;32.27;;;29.13;;
42598;SDS011;28225;42.714;23.860;2023-12-22T00:15:15;31.13;;;27.92;;
42598;SDS011;28225;42.714;23.860;2023-12-22T00:15:30;28.57;;;25.50;;
42598;SDS011;28225;42.714;23.860;2023-12-22T00:15:46;27.65;;;24.70;;
42598;SDS011;28225;42.714;23.860;2023-12-22T00:16:01;28.43;;;24.83;;
42598;SDS011;28225;42.714;23.860;2023-12-22T00:16:17;26.27;;;23.15;;
42598;SDS011;28225;42.714;23.860;2023-12-22T00:16:32;24.93;;;22.43;;
42598;SDS011;28225;42.714;23.860;2023-12-22T00:16:48;26.48;;;23.67;;
42598;SDS011;28225;42.714;23.860;2023-12-22T00:17:03;28.73;;;25.63;;
42598;SDS011;28225;42.714;23.860;2023-12-22T00:17:19;29.77;;;26.83;;
42598;SDS011;28225;42.714;23.860;2023-12-22T00:17:34;26.60;;;24.02;;
42598;SDS011;28225;42.714;23.860;2023-12-22T00:17:50;24.00;;;20.60;;
42598;SDS011;28225;42.714;23.860;2023-12-22T00:18:05;25.02;;;20.45;;
42598;SDS011;28225;42.714;23.860;2023-12-22T00:18:21;23.17;;;20.35;;
42598;SDS011;28225;42.714;23.860;2023-12-22T00:18:36;24.07;;;21.37;;
42598;SDS011;28225;42.714;23.860;2023-12-22T00:18:52;26.65;;;23.75;;
42598;SDS011;28225;42.714;23.860;2023-12-22T00:19:08;27.50;;;24.67;;
42598;SDS011;28225;42.714;23.860;2023-12-22T00:19:24;27.63;;;24.92;;
42598;SDS011;28225;42.714;23.860;2023-12-22T00:19:39;27.23;;;24.53;;
42598;SDS011;28225;42.714;23.860;2023-12-22T00:19:55;26.92;;;24.33;;
42598;SDS011;28225;42.714;23.860;2023-12-22T00:20:14;25.38;;;22.88;;
42598;SDS011;28225;42.714;23.860;2023-12-22T00:20:29;24.75;;;22.10;;
42598;SDS011;28225;42.714;23.860;2023-12-22T00:20:45;25.27;;;22.67;;
42598;SDS011;28225;42.714;23.860;2023-12-22T00:21:00;26.75;;;24.08;;
42598;SDS011;28225;42.714;23.860;2023-12-22T00:21:16;22.88;;;20.58;;
42598;SDS011;28225;42.714;23.860;2023-12-22T00:21:31;20.30;;;16.47;;
42598;SDS011;28225;42.714;23.860;2023-12-22T00:21:46;21.63;;;17.27;;
42598;SDS011;28225;42.714;23.860;2023-12-22T00:22:02;19.70;;;17.65;;
42598;SDS011;28225;42.714;23.860;2023-12-22T00:22:18;19.33;;;17.30;;
42598;SDS011;28225;42.714;23.860;2023-12-22T00:22:34;19.92;;;17.13;;
42598;SDS011;28225;42.714;23.860;2023-12-22T00:22:49;19.13;;;16.40;;
42598;SDS011;28225;42.714;23.860;2023-12-22T00:23:05;19.50;;;16.55;;
42598;SDS011;28225;42.714;23.860;2023-12-22T00:23:20;20.43;;;17.47;;
42598;SDS011;28225;42.714;23.860;2023-12-22T00:23:36;20.45;;;17.65;;
42598;SDS011;28225;42.714;23.860;2023-12-22T00:23:51;20.47;;;18.20;;
42598;SDS011;28225;42.714;23.860;2023-12-22T00:24:06;21.37;;;19.17;;
42598;SDS011;28225;42.714;23.860;2023-12-22T00:24:24;20.60;;;18.50;;
42598;SDS011;28225;42.714;23.860;2023-12-22T00:24:39;18.85;;;16.85;;
42598;SDS011;28225;42.714;23.860;2023-12-22T00:24:55;21.87;;;16.73;;
42598;SDS011;28225;42.714;23.860;2023-12-22T00:25:11;23.23;;;17.02;;
42598;SDS011;28225;42.714;23.860;2023-12-22T00:25:26;22.63;;;17.17;;
42598;SDS011;28225;42.714;23.860;2023-12-22T00:25:42;24.53;;;17.23;;
42598;SDS011;28225;42.714;23.860;2023-12-22T00:25:57;21.85;;;16.80;;
42598;SDS011;28225;42.714;23.860;2023-12-22T00:26:13;19.43;;;16.37;;
42598;SDS011;28225;42.714;23.860;2023-12-22T00:26:30;18.35;;;16.17;;
42598;SDS011;28225;42.714;23.860;2023-12-22T00:26:45;19.10;;;17.27;;
42598;SDS011;28225;42.714;23.860;2023-12-22T00:27:01;20.63;;;18.60;;
42598;SDS011;28225;42.714;23.860;2023-12-22T00:27:17;19.98;;;17.60;;
42598;SDS011;28225;42.714;23.860;2023-12-22T00:27:33;18.97;;;16.37;;
42598;SDS011;28225;42.714;23.860;2023-12-22T00:27:48;19.90;;;16.33;;
42598;SDS011;28225;42.714;23.860;2023-12-22T00:28:04;21.40;;;16.00;;
42598;SDS011;28225;42.714;23.860;2023-12-22T00:28:19;19.45;;;15.75;;
42598;SDS011;28225;42.714;23.860;2023-12-22T00:28:35;19.27;;;16.10;;
42598;SDS011;28225;42.714;23.860;2023-12-22T00:28:50;20.67;;;16.35;;
42598;SDS011;28225;42.714;23.860;2023-12-22T00:29:06;19.50;;;16.13;;
42598;SDS011;28225;42.714;23.860;2023-12-22T00:29:21;18.30;;;15.93;;
42598;SDS011;28225;42.714;23.860;2023-12-22T00:29:37;18.27;;;15.50;;
42598;SDS011;28225;42.714;23.860;2023-12-22T00:29:52;17.37;;;15.47;;
42598;SDS011;28225;42.714;23.860;2023-12-22T00:30:08;17.58;;;15.68;;
42598;SDS011;28225;42.714;23.860;2023-12-22T00:30:24;18.73;;;15.02;;
42598;SDS011;28225;42.714;23.860;2023-12-22T00:30:39;18.77;;;15.10;;
42598;SDS011;28225;42.714;23.860;2023-12-22T00:30:55;16.73;;;14.77;;
42598;SDS011;28225;42.714;23.860;2023-12-22T00:31:10;16.30;;;14.60;;
42598;SDS011;28225;42.714;23.860;2023-12-22T00:31:27;17.23;;;15.15;;
42598;SDS011;28225;42.714;23.860;2023-12-22T00:31:42;17.25;;;14.68;;
42598;SDS011;28225;42.714;23.860;2023-12-22T00:31:58;18.60;;;14.27;;
42598;SDS011;28225;42.714;23.860;2023-12-22T00:32:13;19.35;;;14.35;;
42598;SDS011;28225;42.714;23.860;2023-12-22T00:32:29;19.27;;;14.73;;
42598;SDS011;28225;42.714;23.860;2023-12-22T00:32:44;20.02;;;15.23;;
42598;SDS011;28225;42.714;23.860;2023-12-22T00:33:00;18.80;;;16.23;;
42598;SDS011;28225;42.714;23.860;2023-12-22T00:33:15;18.20;;;16.25;;
42598;SDS011;28225;42.714;23.860;2023-12-22T00:33:31;17.30;;;15.33;;
42598;SDS011;28225;42.714;23.860;2023-12-22T00:33:46;17.80;;;15.25;;
42598;SDS011;28225;42.714;23.860;2023-12-22T00:34:02;18.87;;;16.90;;
42598;SDS011;28225;42.714;23.860;2023-12-22T00:34:17;19.77;;;17.73;;
42598;SDS011;28225;42.714;23.860;2023-12-22T00:34:34;19.27;;;17.20;;
42598;SDS011;28225;42.714;23.860;2023-12-22T00:34:50;18.83;;;16.85;;
42598;SDS011;28225;42.714;23.860;2023-12-22T00:35:06;18.03;;;16.07;;
42598;SDS011;28225;42.714;23.860;2023-12-22T00:35:21;18.58;;;16.67;;
42598;SDS011;28225;42.714;23.860;2023-12-22T00:35:37;21.90;;;18.73;;
42598;SDS011;28225;42.714;23.860;2023-12-22T00:35:52;22.63;;;18.40;;
42598;SDS011;28225;42.714;23.860;2023-12-22T00:36:08;20.10;;;17.43;;
42598;SDS011;28225;42.714;23.860;2023-12-22T00:36:23;20.30;;;17.85;;
42598;SDS011;28225;42.714;23.860;2023-12-22T00:36:39;26.27;;;23.40;;
42598;SDS011;28225;42.714;23.860;2023-12-22T00:36:55;31.67;;;26.27;;
42598;SDS011;28225;42.714;23.860;2023-12-22T00:37:11;27.60;;;22.37;;
42598;SDS011;28225;42.714;23.860;2023-12-22T00:37:27;22.15;;;18.77;;
42598;SDS011;28225;42.714;23.860;2023-12-22T00:37:42;19.60;;;16.57;;
42598;SDS011;28225;42.714;23.860;2023-12-22T00:37:58;20.60;;;16.03;;
42598;SDS011;28225;42.714;23.860;2023-12-22T00:38:13;21.90;;;16.37;;
42598;SDS011;28225;42.714;23.860;2023-12-22T00:38:29;22.10;;;15.93;;
42598;SDS011;28225;42.714;23.860;2023-12-22T00:38:44;21.02;;;15.77;;
42598;SDS011;28225;42.714;23.860;2023-12-22T00:39:00;20.40;;;16.87;;
42598;SDS011;28225;42.714;23.860;2023-12-22T00:39:15;30.08;;;25.95;;
42598;SDS011;28225;42.714;23.860;2023-12-22T00:39:30;37.50;;;29.43;;
42598;SDS011;28225;42.714;23.860;2023-12-22T00:39:46;28.85;;;21.15;;
42598;SDS011;28225;42.714;23.860;2023-12-22T00:40:01;20.30;;;17.17;;
42598;SDS011;28225;42.714;23.860;2023-12-22T00:40:20;19.05;;;16.00;;
42598;SDS011;28225;42.714;23.860;2023-12-22T00:40:36;20.33;;;16.57;;
42598;SDS011;28225;42.714;23.860;2023-12-22T00:40:51;21.67;;;17.45;;
42598;SDS011;28225;42.714;23.860;2023-12-22T00:41:06;23.10;;;17.80;;
42598;SDS011;28225;42.714;23.860;2023-12-22T00:41:22;23.08;;;17.75;;
42598;SDS011;28225;42.714;23.860;2023-12-22T00:41:37;20.67;;;16.53;;
42598;SDS011;28225;42.714;23.860;2023-12-22T00:41:53;18.15;;;16.02;;
42598;SDS011;28225;42.714;23.860;2023-12-22T00:42:08;18.10;;;16.17;;
42598;SDS011;28225;42.714;23.860;2023-12-22T00:42:24;20.00;;;16.13;;
42598;SDS011;28225;42.714;23.860;2023-12-22T00:42:39;21.20;;;15.83;;
42598;SDS011;28225;42.714;23.860;2023-12-22T00:42:55;19.30;;;14.82;;
42598;SDS011;28225;42.714;23.860;2023-12-22T00:43:10;18.00;;;14.53;;
42598;SDS011;28225;42.714;23.860;2023-12-22T00:43:25;20.40;;;15.17;;
42598;SDS011;28225;42.714;23.860;2023-12-22T00:43:41;19.55;;;14.80;;
42598;SDS011;28225;42.714;23.860;2023-12-22T00:43:56;15.83;;;14.03;;
42598;SDS011;28225;42.714;23.860;2023-12-22T00:44:12;17.30;;;14.23;;
42598;SDS011;28225;42.714;23.860;2023-12-22T00:44:27;16.43;;;13.87;;
42598;SDS011;28225;42.714;23.860;2023-12-22T00:44:44;15.45;;;13.85;;
42598;SDS011;28225;42.714;23.860;2023-12-22T00:45:00;15.82;;;14.13;;
42598;SDS011;28225;42.714;23.860;2023-12-22T00:45:15;16.13;;;13.73;;
42598;SDS011;28225;42.714;23.860;2023-12-22T00:45:31;17.38;;;14.55;;
42598;SDS011;28225;42.714;23.860;2023-12-22T00:45:47;18.05;;;15.90;;
42598;SDS011;28225;42.714;23.860;2023-12-22T00:46:02;18.17;;;16.37;;
42598;SDS011;28225;42.714;23.860;2023-12-22T00:46:18;18.55;;;16.75;;
42598;SDS011;28225;42.714;23.860;2023-12-22T00:46:35;21.48;;;19.48;;
42598;SDS011;28225;42.714;23.860;2023-12-22T00:46:50;22.63;;;20.53;;
42598;SDS011;28225;42.714;23.860;2023-12-22T00:47:05;20.47;;;18.53;;
42598;SDS011;28225;42.714;23.860;2023-12-22T00:47:21;18.30;;;16.50;;
42598;SDS011;28225;42.714;23.860;2023-12-22T00:47:36;20.27;;;15.83;;
42598;SDS011;28225;42.714;23.860;2023-12-22T00:47:52;19.13;;;15.40;;
42598;SDS011;28225;42.714;23.860;2023-12-22T00:48:07;17.60;;;15.77;;
42598;SDS011;28225;42.714;23.860;2023-12-22T00:48:23;20.23;;;17.43;;
42598;SDS011;28225;42.714;23.860;2023-12-22T00:48:38;21.10;;;18.17;;
42598;SDS011;28225;42.714;23.860;2023-12-22T00:48:54;21.53;;;17.53;;
42598;SDS011;28225;42.714;23.860;2023-12-22T00:49:09;23.10;;;17.67;;
42598;SDS011;28225;42.714;23.860;2023-12-22T00:49:25;22.15;;;18.05;;
42598;SDS011;28225;42.714;23.860;2023-12-22T00:49:40;21.40;;;17.67;;
42598;SDS011;28225;42.714;23.860;2023-12-22T00:49:55;20.27;;;16.50;;
42598;SDS011;28225;42.714;23.860;2023-12-22T00:50:11;21.03;;;15.67;;
42598;SDS011;28225;42.714;23.860;2023-12-22T00:50:27;23.08;;;16.52;;
42598;SDS011;28225;42.714;23.860;2023-12-22T00:50:42;21.30;;;17.47;;
42598;SDS011;28225;42.714;23.860;2023-12-22T00:50:57;21.70;;;18.50;;
42598;SDS011;28225;42.714;23.860;2023-12-22T00:51:13;24.27;;;19.30;;
42598;SDS011;28225;42.714;23.860;2023-12-22T00:51:28;25.23;;;20.35;;
42598;SDS011;28225;42.714;23.860;2023-12-22T00:51:44;26.00;;;21.47;;
42598;SDS011;28225;42.714;23.860;2023-12-22T00:51:59;25.83;;;23.10;;
42598;SDS011;28225;42.714;23.860;2023-12-22T00:52:15;28.05;;;24.70;;
42598;SDS011;28225;42.714;23.860;2023-12-22T00:52:30;29.37;;;24.40;;
42598;SDS011;28225;42.714;23.860;2023-12-22T00:52:46;32.35;;;26.27;;
42598;SDS011;28225;42.714;23.860;2023-12-22T00:53:02;36.73;;;30.37;;
42598;SDS011;28225;42.714;23.860;2023-12-22T00:53:17;34.10;;;30.30;;
42598;SDS011;28225;42.714;23.860;2023-12-22T00:53:33;30.87;;;27.60;;
42598;SDS011;28225;42.714;23.860;2023-12-22T00:53:48;27.40;;;24.67;;
42598;SDS011;28225;42.714;23.860;2023-12-22T00:54:04;23.73;;;21.23;;
42598;SDS011;28225;42.714;23.860;2023-12-22T00:54:19;22.48;;;19.10;;
42598;SDS011;28225;42.714;23.860;2023-12-22T00:54:35;21.43;;;19.07;;
42598;SDS011;28225;42.714;23.860;2023-12-22T00:54:50;26.50;;;20.27;;
42598;SDS011;28225;42.714;23.860;2023-12-22T00:55:06;28.70;;;21.30;;
42598;SDS011;28225;42.714;23.860;2023-12-22T00:55:21;31.20;;;24.08;;
42598;SDS011;28225;42.714;23.860;2023-12-22T00:55:37;30.33;;;26.10;;
42598;SDS011;28225;42.714;23.860;2023-12-22T00:55:52;28.80;;;25.77;;
42598;SDS011;28225;42.714;23.860;2023-12-22T00:56:07;28.92;;;25.15;;
42598;SDS011;28225;42.714;23.860;2023-12-22T00:56:23;29.27;;;25.97;;
42598;SDS011;28225;42.714;23.860;2023-12-22T00:56:38;26.70;;;23.27;;
42598;SDS011;28225;42.714;23.860;2023-12-22T00:56:54;25.67;;;20.87;;
42598;SDS011;28225;42.714;23.860;2023-12-22T00:57:09;27.90;;;22.85;;
42598;SDS011;28225;42.714;23.860;2023-12-22T00:57:26;28.95;;;24.35;;
42598;SDS011;28225;42.714;23.860;2023-12-22T00:57:41;27.65;;;23.92;;
42598;SDS011;28225;42.714;23.860;2023-12-22T00:57:57;27.05;;;24.20;;
42598;SDS011;28225;42.714;23.860;2023-12-22T00:58:13;27.93;;;25.07;;
42598;SDS011;28225;42.714;23.860;2023-12-22T00:58:29;28.70;;;25.77;;
42598;SDS011;28225;42.714;23.860;2023-12-22T00:58:45;29.52;;;26.63;;
42598;SDS011;28225;42.714;23.860;2023-12-22T00:59:00;29.00;;;25.90;;
42598;SDS011;28225;42.714;23.860;2023-12-22T00:59:16;26.50;;;23.73;;
42598;SDS011;28225;42.714;23.860;2023-12-22T00:59:31;24.10;;;21.67;;
42598;SDS011;28225;42.714;23.860;2023-12-22T00:59:47;24.23;;;21.73;;
42598;SDS011;28225;42.714;23.860;2023-12-22T01:00:03;23.88;;;21.48;;
42598;SDS011;28225;42.714;23.860;2023-12-22T01:00:20;21.52;;;19.40;;
42598;SDS011;28225;42.714;23.860;2023-12-22T01:00:35;21.38;;;18.55;;
42598;SDS011;28225;42.714;23.860;2023-12-22T01:00:50;21.03;;;18.43;;
42598;SDS011;28225;42.714;23.860;2023-12-22T01:01:06;20.90;;;18.15;;
42598;SDS011;28225;42.714;23.860;2023-12-22T01:01:21;20.33;;;17.87;;
42598;SDS011;28225;42.714;23.860;2023-12-22T01:01:37;20.80;;;17.87;;
42598;SDS011;28225;42.714;23.860;2023-12-22T01:01:52;20.55;;;17.17;;
42598;SDS011;28225;42.714;23.860;2023-12-22T01:02:08;19.03;;;17.07;;
42598;SDS011;28225;42.714;23.860;2023-12-22T01:02:23;22.23;;;19.00;;
42598;SDS011;28225;42.714;23.860;2023-12-22T01:02:38;23.80;;;21.27;;
42598;SDS011;28225;42.714;23.860;2023-12-22T01:02:54;24.65;;;22.45;;
42598;SDS011;28225;42.714;23.860;2023-12-22T01:03:10;25.60;;;23.40;;
42598;SDS011;28225;42.714;23.860;2023-12-22T01:03:26;27.75;;;25.25;;
42598;SDS011;28225;42.714;23.860;2023-12-22T01:03:42;27.30;;;24.98;;
42598;SDS011;28225;42.714;23.860;2023-12-22T01:03:57;25.57;;;23.27;;
42598;SDS011;28225;42.714;23.860;2023-12-22T01:04:13;25.88;;;23.58;;
42598;SDS011;28225;42.714;23.860;2023-12-22T01:04:28;25.20;;;23.00;;
42598;SDS011;28225;42.714;23.860;2023-12-22T01:04:44;24.40;;;22.25;;
42598;SDS011;28225;42.714;23.860;2023-12-22T01:04:59;24.87;;;22.70;;
42598;SDS011;28225;42.714;23.860;2023-12-22T01:05:15;24.75;;;22.65;;
42598;SDS011;28225;42.714;23.860;2023-12-22T01:05:31;25.73;;;23.42;;
42598;SDS011;28225;42.714;23.860;2023-12-22T01:05:46;26.43;;;24.13;;
42598;SDS011;28225;42.714;23.860;2023-12-22T01:06:02;25.27;;;23.07;;
42598;SDS011;28225;42.714;23.860;2023-12-22T01:06:17;24.13;;;21.98;;
42598;SDS011;28225;42.714;23.860;2023-12-22T01:06:36;24.27;;;22.10;;
42598;SDS011;28225;42.714;23.860;2023-12-22T01:06:52;22.75;;;20.60;;
42598;SDS011;28225;42.714;23.860;2023-12-22T01:07:08;22.63;;;20.50;;
42598;SDS011;28225;42.714;23.860;2023-12-22T01:07:24;22.88;;;20.67;;
42598;SDS011;28225;42.714;23.860;2023-12-22T01:07:40;22.70;;;20.50;;
42598;SDS011;28225;42.714;23.860;2023-12-22T01:07:56;24.13;;;21.77;;
42598;SDS011;28225;42.714;23.860;2023-12-22T01:08:11;23.50;;;21.37;;
42598;SDS011;28225;42.714;23.860;2023-12-22T01:08:27;23.73;;;21.80;;
42598;SDS011;28225;42.714;23.860;2023-12-22T01:08:42;24.83;;;22.80;;
42598;SDS011;28225;42.714;23.860;2023-12-22T01:08:58;24.38;;;21.98;;
42598;SDS011;28225;42.714;23.860;2023-12-22T01:09:13;25.40;;;22.90;;
42598;SDS011;28225;42.714;23.860;2023-12-22T01:09:30;26.30;;;24.10;;
42598;SDS011;28225;42.714;23.860;2023-12-22T01:09:45;24.73;;;22.50;;
42598;SDS011;28225;42.714;23.860;2023-12-22T01:10:01;24.23;;;22.00;;
42598;SDS011;28225;42.714;23.860;2023-12-22T01:10:18;23.25;;;21.15;;
42598;SDS011;28225;42.714;23.860;2023-12-22T01:10:34;22.38;;;20.10;;
42598;SDS011;28225;42.714;23.860;2023-12-22T01:10:49;24.03;;;21.67;;
42598;SDS011;28225;42.714;23.860;2023-12-22T01:11:05;23.67;;;21.52;;
42598;SDS011;28225;42.714;23.860;2023-12-22T01:11:20;24.73;;;22.33;;
42598;SDS011;28225;42.714;23.860;2023-12-22T01:11:36;26.15;;;23.75;;
42598;SDS011;28225;42.714;23.860;2023-12-22T01:11:51;24.57;;;22.23;;
42598;SDS011;28225;42.714;23.860;2023-12-22T01:12:07;23.83;;;21.48;;
42598;SDS011;28225;42.714;23.860;2023-12-22T01:12:22;23.60;;;21.50;;
42598;SDS011;28225;42.714;23.860;2023-12-22T01:12:38;25.17;;;22.87;;
42598;SDS011;28225;42.714;23.860;2023-12-22T01:12:53;24.92;;;22.67;;
42598;SDS011;28225;42.714;23.860;2023-12-22T01:13:09;22.47;;;20.43;;
42598;SDS011;28225;42.714;23.860;2023-12-22T01:13:24;21.23;;;19.17;;
42598;SDS011;28225;42.714;23.860;2023-12-22T01:13:40;21.15;;;19.10;;
42598;SDS011;28225;42.714;23.860;2023-12-22T01:13:55;20.93;;;18.87;;
42598;SDS011;28225;42.714;23.860;2023-12-22T01:14:11;21.17;;;19.00;;
42598;SDS011;28225;42.714;23.860;2023-12-22T01:14:28;22.25;;;20.05;;
42598;SDS011;28225;42.714;23.860;2023-12-22T01:14:43;21.50;;;19.35;;
42598;SDS011;28225;42.714;23.860;2023-12-22T01:15:00;20.45;;;18.38;;
42598;SDS011;28225;42.714;23.860;2023-12-22T01:15:15;21.15;;;19.02;;
42598;SDS011;28225;42.714;23.860;2023-12-22T01:15:31;22.20;;;20.07;;
42598;SDS011;28225;42.714;23.860;2023-12-22T01:15:46;23.60;;;21.43;;
42598;SDS011;28225;42.714;23.860;2023-12-22T01:16:02;23.00;;;20.92;;
42598;SDS011;28225;42.714;23.860;2023-12-22T01:16:17;22.20;;;20.17;;
42598;SDS011;28225;42.714;23.860;2023-12-22T01:16:36;21.98;;;20.08;;
42598;SDS011;28225;42.714;23.860;2023-12-22T01:16:52;22.48;;;20.48;;
42598;SDS011;28225;42.714;23.860;2023-12-22T01:17:07;23.37;;;21.23;;
42598;SDS011;28225;42.714;23.860;2023-12-22T01:17:23;24.48;;;22.23;;
42598;SDS011;28225;42.714;23.860;2023-12-22T01:17:38;23.67;;;21.63;;
42598;SDS011;28225;42.714;23.860;2023-12-22T01:17:53;23.13;;;21.02;;
42598;SDS011;28225;42.714;23.860;2023-12-22T01:18:10;21.77;;;19.77;;
42598;SDS011;28225;42.714;23.860;2023-12-22T01:18:26;19.55;;;17.65;;
42598;SDS011;28225;42.714;23.860;2023-12-22T01:18:44;17.50;;;15.55;;
42598;SDS011;28225;42.714;23.860;2023-12-22T01:18:59;16.40;;;14.55;;
42598;SDS011;28225;42.714;23.860;2023-12-22T01:19:15;18.13;;;15.27;;
42598;SDS011;28225;42.714;23.860;2023-12-22T01:19:30;17.87;;;15.57;;
42598;SDS011;28225;42.714;23.860;2023-12-22T01:19:46;17.40;;;14.83;;
42598;SDS011;28225;42.714;23.860;2023-12-22T01:20:01;19.05;;;15.90;;
42598;SDS011;28225;42.714;23.860;2023-12-22T01:20:17;19.43;;;17.30;;
42598;SDS011;28225;42.714;23.860;2023-12-22T01:20:33;19.67;;;17.15;;
42598;SDS011;28225;42.714;23.860;2023-12-22T01:20:48;20.95;;;17.10;;
42598;SDS011;28225;42.714;23.860;2023-12-22T01:21:04;19.70;;;17.55;;
42598;SDS011;28225;42.714;23.860;2023-12-22T01:21:19;18.90;;;17.00;;
42598;SDS011;28225;42.714;23.860;2023-12-22T01:21:35;17.53;;;15.67;;
42598;SDS011;28225;42.714;23.860;2023-12-22T01:21:50;17.73;;;15.52;;
42598;SDS011;28225;42.714;23.860;2023-12-22T01:22:06;18.67;;;16.10;;
42598;SDS011;28225;42.714;23.860;2023-12-22T01:22:21;18.60;;;16.42;;
42598;SDS011;28225;42.714;23.860;2023-12-22T01:22:37;17.95;;;15.90;;
42598;SDS011;28225;42.714;23.860;2023-12-22T01:22:53;18.45;;;16.63;;
42598;SDS011;28225;42.714;23.860;2023-12-22T01:23:08;19.97;;;17.87;;
42598;SDS011;28225;42.714;23.860;2023-12-22T01:23:24;22.47;;;18.23;;
42598;SDS011;28225;42.714;23.860;2023-12-22T01:23:40;21.58;;;18.02;;
42598;SDS011;28225;42.714;23.860;2023-12-22T01:23:55;21.15;;;18.95;;
42598;SDS011;28225;42.714;23.860;2023-12-22T01:24:11;22.10;;;19.97;;
42598;SDS011;28225;42.714;23.860;2023-12-22T01:24:26;22.88;;;20.65;;
42598;SDS011;28225;42.714;23.860;2023-12-22T01:24:42;22.03;;;19.80;;
42598;SDS011;28225;42.714;23.860;2023-12-22T01:24:58;18.65;;;16.73;;
42598;SDS011;28225;42.714;23.860;2023-12-22T01:25:14;19.42;;;17.35;;
42598;SDS011;28225;42.714;23.860;2023-12-22T01:25:30;20.20;;;18.03;;
42598;SDS011;28225;42.714;23.860;2023-12-22T01:25:45;19.33;;;17.20;;
42598;SDS011;28225;42.714;23.860;2023-12-22T01:26:01;19.20;;;17.17;;
42598;SDS011;28225;42.714;23.860;2023-12-22T01:26:16;21.33;;;19.10;;
42598;SDS011;28225;42.714;23.860;2023-12-22T01:26:32;23.63;;;21.23;;
42598;SDS011;28225;42.714;23.860;2023-12-22T01:26:47;24.83;;;22.35;;
42598;SDS011;28225;42.714;23.860;2023-12-22T01:27:03;24.60;;;22.20;;
42598;SDS011;28225;42.714;23.860;2023-12-22T01:27:18;23.08;;;20.77;;
42598;SDS011;28225;42.714;23.860;2023-12-22T01:27:34;20.98;;;18.85;;
42598;SDS011;28225;42.714;23.860;2023-12-22T01:27:50;20.75;;;18.55;;
42598;SDS011;28225;42.714;23.860;2023-12-22T01:28:07;22.08;;;19.77;;
42598;SDS011;28225;42.714;23.860;2023-12-22T01:28:22;22.10;;;19.93;;
42598;SDS011;28225;42.714;23.860;2023-12-22T01:28:38;22.40;;;20.10;;
42598;SDS011;28225;42.714;23.860;2023-12-22T01:28:53;24.15;;;20.98;;
42598;SDS011;28225;42.714;23.860;2023-12-22T01:29:09;24.43;;;21.77;;
42598;SDS011;28225;42.714;23.860;2023-12-22T01:29:24;24.95;;;22.38;;
42598;SDS011;28225;42.714;23.860;2023-12-22T01:29:40;23.47;;;21.07;;
42598;SDS011;28225;42.714;23.860;2023-12-22T01:29:55;22.00;;;19.83;;
42598;SDS011;28225;42.714;23.860;2023-12-22T01:30:10;23.43;;;21.10;;